createdAt,value
2023-05-19T00:01:10.436Z,57.56
2023-05-19T00:03:36.918Z,57.60
2023-05-19T00:06:04.177Z,56.71
2023-05-19T00:08:31.695Z,56.34
2023-05-19T00:10:59.289Z,57.95
2023-05-19T00:13:25.779Z,58.03
2023-05-19T00:15:52.473Z,57.89
2023-05-19T00:18:20.048Z,58.16
2023-05-19T00:20:46.643Z,57.20
2023-05-19T00:23:13.238Z,57.41
2023-05-19T00:25:39.723Z,57.34
2023-05-19T00:28:07.408Z,57.54
2023-05-19T00:30:34.130Z,57.97
2023-05-19T00:33:01.616Z,57.19
2023-05-19T00:35:28.100Z,57.47
2023-05-19T00:37:54.743Z,56.66
2023-05-19T00:40:22.351Z,57.26
2023-05-19T00:42:48.815Z,57.24
2023-05-19T00:45:16.524Z,57.81
2023-05-19T00:47:43.095Z,58.61
2023-05-19T00:50:09.551Z,58.66
2023-05-19T00:52:36.269Z,58.07
2023-05-19T00:55:02.711Z,57.88
2023-05-19T00:57:29.451Z,58.28
2023-05-19T00:59:57.043Z,58.56
2023-05-19T01:02:24.786Z,58.74
2023-05-19T01:04:51.356Z,58.55
2023-05-19T01:07:18.785Z,57.51
2023-05-19T01:09:45.224Z,58.84
2023-05-19T01:12:11.999Z,58.80
2023-05-19T01:14:38.583Z,59.55
2023-05-19T01:17:06.152Z,59.84
2023-05-19T01:19:32.722Z,60.23
2023-05-19T01:21:59.465Z,60.13
2023-05-19T01:24:26.990Z,60.21
2023-05-19T01:26:55.662Z,59.65
2023-05-19T01:29:23.181Z,60.74
2023-05-19T01:31:49.781Z,59.99
2023-05-19T01:34:16.351Z,59.89
2023-05-19T01:36:42.800Z,59.37
2023-05-19T01:39:09.285Z,60.82
2023-05-19T01:41:35.796Z,60.09
2023-05-19T01:44:02.246Z,60.68
2023-05-19T01:46:28.761Z,59.87
2023-05-19T01:48:55.911Z,60.40
2023-05-19T01:51:23.514Z,60.80
2023-05-19T01:53:51.094Z,60.07
2023-05-19T01:56:17.597Z,60.46
2023-05-19T01:58:44.078Z,60.82
2023-05-19T02:01:10.657Z,60.19
2023-05-19T02:03:37.439Z,59.29
2023-05-19T02:06:03.932Z,60.82
2023-05-19T02:08:30.630Z,60.67
2023-05-19T02:10:57.215Z,60.83
2023-05-19T02:13:23.655Z,60.69
2023-05-19T02:15:50.458Z,60.40
2023-05-19T02:18:18.026Z,60.25
2023-05-19T02:20:45.564Z,60.61
2023-05-19T02:23:12.159Z,61.18
2023-05-19T02:25:38.760Z,60.66
2023-05-19T02:28:05.275Z,60.86
2023-05-19T02:30:32.281Z,61.13
2023-05-19T02:32:59.619Z,61.51
2023-05-19T02:35:27.113Z,61.45
2023-05-19T02:37:53.583Z,61.61
2023-05-19T02:40:20.282Z,61.47
2023-05-19T02:42:46.740Z,61.15
2023-05-19T02:45:13.483Z,61.44
2023-05-19T02:47:40.152Z,61.73
2023-05-19T02:50:07.675Z,61.89
2023-05-19T02:52:35.237Z,61.85
2023-05-19T02:55:01.819Z,61.00
2023-05-19T02:57:29.403Z,61.33
2023-05-19T02:59:56.008Z,61.95
2023-05-19T03:02:24.641Z,61.53
2023-05-19T03:04:51.165Z,62.00
2023-05-19T03:07:18.762Z,61.85
2023-05-19T03:09:45.375Z,62.30
2023-05-19T03:12:13.986Z,62.26
2023-05-19T03:14:40.500Z,62.56
2023-05-19T03:17:07.191Z,62.55
2023-05-19T03:19:34.746Z,62.99
2023-05-19T03:22:01.336Z,62.66
2023-05-19T03:24:27.931Z,62.47
2023-05-19T03:26:55.520Z,62.42
2023-05-19T03:29:22.134Z,63.23
2023-05-19T03:31:51.694Z,62.60
2023-05-19T03:34:18.143Z,62.32
2023-05-19T03:36:44.600Z,62.55
2023-05-19T03:39:11.455Z,62.64
2023-05-19T03:41:38.070Z,62.75
2023-05-19T03:44:06.676Z,62.79
2023-05-19T03:46:33.554Z,62.75
2023-05-19T03:49:00.864Z,62.73
2023-05-19T03:51:28.464Z,62.35
2023-05-19T03:53:54.998Z,63.29
2023-05-19T03:56:21.429Z,63.41
2023-05-19T03:58:51.246Z,63.02
2023-05-19T04:01:18.068Z,62.69
2023-05-19T04:03:45.468Z,63.02
2023-05-19T04:06:13.015Z,62.75
2023-05-19T04:08:39.576Z,63.08
2023-05-19T04:11:06.419Z,63.99
2023-05-19T04:13:32.925Z,63.63
2023-05-19T04:15:59.399Z,64.32
2023-05-19T04:18:27.593Z,64.43
2023-05-19T04:20:55.447Z,64.03
2023-05-19T04:23:21.895Z,63.23
2023-05-19T04:25:48.333Z,63.46
2023-05-19T04:28:14.792Z,64.18
2023-05-19T04:30:41.269Z,63.31
2023-05-19T04:33:07.864Z,64.01
2023-05-19T04:35:34.496Z,63.42
2023-05-19T04:38:01.708Z,63.83
2023-05-19T04:40:29.251Z,63.53
2023-05-19T04:42:56.863Z,63.03
2023-05-19T04:45:23.492Z,63.65
2023-05-19T04:47:51.116Z,63.55
2023-05-19T04:50:18.656Z,63.53
2023-05-19T04:52:46.231Z,63.30
2023-05-19T04:55:12.831Z,64.02
2023-05-19T04:57:39.275Z,64.05
2023-05-19T05:00:06.001Z,63.74
2023-05-19T05:02:32.630Z,63.82
2023-05-19T05:04:59.239Z,64.11
2023-05-19T05:07:25.825Z,63.45
2023-05-19T05:09:53.454Z,63.60
2023-05-19T05:12:20.025Z,63.64
2023-05-19T05:14:48.641Z,63.40
2023-05-19T05:17:15.107Z,63.70
2023-05-19T05:19:41.563Z,63.50
2023-05-19T05:22:08.455Z,63.06
2023-05-19T05:24:35.047Z,63.01
2023-05-19T05:27:01.741Z,62.69
2023-05-19T05:29:28.721Z,63.22
2023-05-19T05:31:55.802Z,63.02
2023-05-19T05:34:23.382Z,61.86
2023-05-19T05:36:49.979Z,62.42
2023-05-19T05:39:18.577Z,62.01
2023-05-19T05:41:45.011Z,61.64
2023-05-19T05:44:11.488Z,62.07
2023-05-19T05:46:38.172Z,61.32
2023-05-19T05:49:04.702Z,60.80
2023-05-19T05:51:31.151Z,60.25
2023-05-19T05:53:57.647Z,60.72
2023-05-19T05:56:25.275Z,60.59
2023-05-19T05:58:51.704Z,59.50
2023-05-19T06:01:18.201Z,59.90
2023-05-19T06:03:44.777Z,60.21
2023-05-19T06:06:11.323Z,58.82
2023-05-19T06:08:37.807Z,58.28
2023-05-19T06:11:04.257Z,57.38
2023-05-19T06:13:30.829Z,58.35
2023-05-19T06:15:58.435Z,57.86
2023-05-19T06:18:26.011Z,57.90
2023-05-19T06:20:52.462Z,57.67
2023-05-19T06:23:18.992Z,57.13
2023-05-19T06:25:45.832Z,57.94
2023-05-19T06:28:14.430Z,58.02
2023-05-19T06:30:40.911Z,57.92
2023-05-19T06:33:07.423Z,57.74
2023-05-19T06:35:33.936Z,58.34
2023-05-19T06:38:00.409Z,58.49
2023-05-19T06:40:26.895Z,59.36
2023-05-19T06:42:53.360Z,58.13
2023-05-19T06:45:19.801Z,57.56
2023-05-19T06:47:46.341Z,57.63
2023-05-19T06:50:12.876Z,57.86
2023-05-19T06:52:39.390Z,58.49
2023-05-19T06:55:05.958Z,56.53
2023-05-19T06:57:32.529Z,56.73
2023-05-19T06:59:58.965Z,56.60
2023-05-19T07:02:25.732Z,56.02
2023-05-19T07:04:53.305Z,56.68
2023-05-19T07:07:19.895Z,56.10
2023-05-19T07:09:48.472Z,57.11
2023-05-19T07:12:14.954Z,57.11
2023-05-19T07:14:41.424Z,57.57
2023-05-19T07:17:07.878Z,57.45
2023-05-19T07:19:34.338Z,55.67
2023-05-19T07:22:00.799Z,55.73
2023-05-19T07:24:27.258Z,55.64
2023-05-19T07:26:53.739Z,55.67
2023-05-19T07:29:21.233Z,55.83
2023-05-19T07:31:47.743Z,55.96
2023-05-19T07:34:14.275Z,54.61
2023-05-19T07:36:40.985Z,56.19
2023-05-19T07:39:07.513Z,56.68
2023-05-19T07:41:36.274Z,56.30
2023-05-19T07:44:02.937Z,57.17
2023-05-19T07:46:29.497Z,55.72
2023-05-19T07:48:57.051Z,54.93
2023-05-19T07:51:23.505Z,56.74
2023-05-19T07:53:50.043Z,57.05
2023-05-19T07:56:16.484Z,58.49
2023-05-19T07:58:43.438Z,57.39
2023-05-19T08:01:10.045Z,56.84
2023-05-19T08:03:36.608Z,56.99
2023-05-19T08:06:04.222Z,56.27
2023-05-19T08:08:30.795Z,55.32
2023-05-19T08:10:57.261Z,54.91
2023-05-19T08:13:23.717Z,54.93
2023-05-19T08:15:50.219Z,55.39
2023-05-19T08:18:17.145Z,54.73
2023-05-19T08:20:43.740Z,56.41
2023-05-19T08:23:10.326Z,56.22
2023-05-19T08:25:36.807Z,54.34
2023-05-19T08:28:03.298Z,54.86
2023-05-19T08:30:29.763Z,55.18
2023-05-19T08:32:56.209Z,55.05
2023-05-19T08:35:22.782Z,53.84
2023-05-19T08:37:49.233Z,53.65
2023-05-19T08:40:15.705Z,55.62
2023-05-19T08:42:42.536Z,52.96
2023-05-19T08:45:08.971Z,53.83
2023-05-19T08:47:35.507Z,54.34
2023-05-19T08:50:02.009Z,53.69
2023-05-19T08:52:28.485Z,54.79
2023-05-19T08:54:54.932Z,54.62
2023-05-19T08:57:21.398Z,52.88
2023-05-19T08:59:47.843Z,52.81
2023-05-19T09:02:14.317Z,53.34
2023-05-19T09:04:41.499Z,53.50
2023-05-19T09:07:08.044Z,53.43
2023-05-19T09:09:34.490Z,54.61
2023-05-19T09:12:00.972Z,52.99
2023-05-19T09:14:27.433Z,53.30
2023-05-19T09:16:53.933Z,52.78
2023-05-19T09:19:20.481Z,52.78
2023-05-19T09:21:46.955Z,54.52
2023-05-19T09:24:14.130Z,53.78
2023-05-19T09:26:40.616Z,54.06
2023-05-19T09:29:07.096Z,55.08
2023-05-19T09:31:33.538Z,55.11
2023-05-19T09:33:59.985Z,54.07
2023-05-19T09:36:26.452Z,54.25
2023-05-19T09:38:53.621Z,55.38
2023-05-19T09:41:20.071Z,53.52
2023-05-19T09:43:46.676Z,54.16
2023-05-19T09:46:14.616Z,53.19
2023-05-19T09:48:41.408Z,53.72
2023-05-19T09:51:08.045Z,52.59
2023-05-19T09:53:35.172Z,52.90
2023-05-19T09:56:01.753Z,53.48
2023-05-19T09:58:28.256Z,52.62
2023-05-19T10:00:54.750Z,50.58
2023-05-19T10:03:21.219Z,51.57
2023-05-19T10:05:47.683Z,50.60
2023-05-19T10:08:14.122Z,50.05
2023-05-19T10:10:40.587Z,49.77
2023-05-19T10:13:07.169Z,50.28
2023-05-19T10:15:40.858Z,49.27
2023-05-19T10:18:13.284Z,49.02
2023-05-19T10:20:40.242Z,48.64
2023-05-19T10:23:06.794Z,49.24
2023-05-19T10:25:33.339Z,49.37
2023-05-19T10:27:59.961Z,48.61
2023-05-19T10:30:26.434Z,50.53
2023-05-19T10:32:52.946Z,48.81
2023-05-19T10:35:19.467Z,49.47
2023-05-19T10:37:46.832Z,49.08
2023-05-19T10:40:13.427Z,49.03
2023-05-19T10:42:39.872Z,49.38
2023-05-19T10:45:06.380Z,48.99
2023-05-19T10:47:33.238Z,49.83
2023-05-19T10:50:01.811Z,48.89
2023-05-19T10:52:28.281Z,47.94
2023-05-19T10:54:55.057Z,48.15
2023-05-19T10:57:21.552Z,49.50
2023-05-19T10:59:48.007Z,48.39
2023-05-19T11:02:14.565Z,51.10
2023-05-19T11:04:41.103Z,49.02
2023-05-19T11:07:07.558Z,48.39
2023-05-19T11:09:39.929Z,48.64
2023-05-19T11:12:06.885Z,48.61
2023-05-19T11:14:33.754Z,48.57
2023-05-19T11:17:00.360Z,48.31
2023-05-19T11:19:26.925Z,49.29
2023-05-19T11:21:53.415Z,47.72
2023-05-19T11:24:19.871Z,47.20
2023-05-19T11:26:46.660Z,49.00
2023-05-19T11:29:13.264Z,48.49
2023-05-19T11:31:39.705Z,48.42
2023-05-19T11:34:06.183Z,47.91
2023-05-19T11:36:32.630Z,48.81
2023-05-19T11:38:59.611Z,48.37
2023-05-19T11:41:26.198Z,48.84
2023-05-19T11:43:52.775Z,49.43
2023-05-19T11:46:19.420Z,48.19
2023-05-19T11:48:47.082Z,49.14
2023-05-19T11:51:13.934Z,48.44
2023-05-19T11:53:42.151Z,48.56
2023-05-19T11:56:08.614Z,48.72
2023-05-19T11:58:35.042Z,48.47
2023-05-19T12:01:01.473Z,49.65
2023-05-19T12:03:28.627Z,48.63
2023-05-19T12:05:55.357Z,47.49
2023-05-19T12:08:21.885Z,47.44
2023-05-19T12:10:48.340Z,47.73
2023-05-19T12:13:14.804Z,48.77
2023-05-19T12:15:41.278Z,49.21
2023-05-19T12:18:07.932Z,48.89
2023-05-19T12:20:34.435Z,50.26
2023-05-19T12:23:01.005Z,48.29
2023-05-19T12:25:27.563Z,48.70
2023-05-19T12:27:55.986Z,47.41
2023-05-19T12:30:22.997Z,49.02
2023-05-19T12:32:51.553Z,49.05
2023-05-19T12:35:18.003Z,47.89
2023-05-19T12:37:44.507Z,49.21
2023-05-19T12:40:10.982Z,49.60
2023-05-19T12:42:38.924Z,49.15
2023-05-19T12:45:05.550Z,48.01
2023-05-19T12:47:33.183Z,47.97
2023-05-19T12:49:59.700Z,48.63
2023-05-19T12:52:26.181Z,47.75
2023-05-19T12:54:52.673Z,48.25
2023-05-19T12:57:19.176Z,48.18
2023-05-19T12:59:47.118Z,48.61
2023-05-19T13:02:13.792Z,48.38
2023-05-19T13:04:40.319Z,47.96
2023-05-19T13:07:06.744Z,48.33
2023-05-19T13:09:33.211Z,49.19
2023-05-19T13:11:59.630Z,49.16
2023-05-19T13:14:26.082Z,47.78
2023-05-19T13:16:52.606Z,48.52
2023-05-19T13:19:25.090Z,48.62
2023-05-19T13:21:52.335Z,47.88
2023-05-19T13:24:18.865Z,47.95
2023-05-19T13:26:45.367Z,48.75
2023-05-19T13:29:11.799Z,48.57
2023-05-19T13:31:38.272Z,48.25
2023-05-19T13:34:05.458Z,49.20
2023-05-19T13:36:31.931Z,48.66
2023-05-19T13:38:58.422Z,48.35
2023-05-19T13:41:24.889Z,48.80
2023-05-19T13:43:51.399Z,47.98
2023-05-19T13:46:19.240Z,49.50
2023-05-19T13:48:47.061Z,49.42
2023-05-19T13:51:13.517Z,49.74
2023-05-19T13:53:39.974Z,50.31
2023-05-19T13:56:06.420Z,51.20
2023-05-19T13:58:32.842Z,51.40
2023-05-19T14:00:59.293Z,52.18
2023-05-19T14:03:25.893Z,50.82
2023-05-19T14:05:52.389Z,51.38
2023-05-19T14:08:18.856Z,51.18
2023-05-19T14:10:45.341Z,51.67
2023-05-19T14:13:31.617Z,52.11
2023-05-19T14:15:58.261Z,50.68
2023-05-19T14:18:25.109Z,51.02
2023-05-19T14:20:51.687Z,52.10
2023-05-19T14:23:18.277Z,51.54
2023-05-19T14:25:44.752Z,51.78
2023-05-19T14:28:11.448Z,51.33
2023-05-19T14:30:37.915Z,52.21
2023-05-19T14:33:04.682Z,51.68
2023-05-19T14:35:31.186Z,52.56
2023-05-19T14:37:57.619Z,52.37
2023-05-19T14:40:24.060Z,52.19
2023-05-19T14:42:51.004Z,52.17
2023-05-19T14:45:17.451Z,52.61
2023-05-19T14:47:44.304Z,52.42
2023-05-19T14:50:11.833Z,51.98
2023-05-19T14:52:38.320Z,52.33
2023-05-19T14:55:05.197Z,52.61
2023-05-19T14:57:32.582Z,52.70
2023-05-19T14:59:59.069Z,52.91
2023-05-19T15:02:27.431Z,53.08
2023-05-19T15:04:55.154Z,53.69
2023-05-19T15:07:21.609Z,53.79
2023-05-19T15:09:48.070Z,53.86
2023-05-19T15:12:14.545Z,53.05
2023-05-19T15:14:41.004Z,53.56
2023-05-19T15:17:08.473Z,53.38
2023-05-19T15:19:35.942Z,54.42
2023-05-19T15:22:02.453Z,54.03
2023-05-19T15:24:29.024Z,54.25
2023-05-19T15:26:55.457Z,54.35
2023-05-19T15:29:21.937Z,54.15
2023-05-19T15:31:48.951Z,54.00
2023-05-19T15:34:15.555Z,53.79
2023-05-19T15:36:42.013Z,54.11
2023-05-19T15:39:08.722Z,54.39
2023-05-19T15:41:37.305Z,54.52
2023-05-19T15:44:03.755Z,55.57
2023-05-19T15:46:30.234Z,55.87
2023-05-19T15:48:56.750Z,55.99
2023-05-19T15:51:23.225Z,55.65
2023-05-19T15:53:50.290Z,55.91
2023-05-19T15:56:17.884Z,56.50
2023-05-19T15:58:44.330Z,55.69
2023-05-19T16:01:10.775Z,55.60
2023-05-19T16:03:37.294Z,55.21
2023-05-19T16:06:03.851Z,55.84
2023-05-19T16:08:30.819Z,55.45
2023-05-19T16:10:57.704Z,55.41
2023-05-19T16:13:24.167Z,55.39
2023-05-19T16:15:50.662Z,55.84
2023-05-19T16:18:17.203Z,56.48
2023-05-19T16:20:43.648Z,56.19
2023-05-19T16:23:10.095Z,56.18
2023-05-19T16:25:36.558Z,56.52
2023-05-19T16:28:03.026Z,57.33
2023-05-19T16:30:29.463Z,57.54
2023-05-19T16:32:56.037Z,57.07
2023-05-19T16:35:22.774Z,57.39
2023-05-19T16:37:49.264Z,56.96
2023-05-19T16:40:16.514Z,56.63
2023-05-19T16:42:45.110Z,56.95
2023-05-19T16:45:11.571Z,56.92
2023-05-19T16:47:38.089Z,57.18
2023-05-19T16:50:04.603Z,57.31
2023-05-19T16:52:31.097Z,57.07
2023-05-19T16:54:58.077Z,57.23
2023-05-19T16:57:24.662Z,56.76
2023-05-19T16:59:51.243Z,57.74
2023-05-19T17:02:17.718Z,57.02
2023-05-19T17:04:44.212Z,57.38
2023-05-19T17:07:10.686Z,57.54
2023-05-19T17:09:37.623Z,57.91
2023-05-19T17:12:04.219Z,57.86
2023-05-19T17:14:30.705Z,57.92
2023-05-19T17:16:57.454Z,58.26
2023-05-19T17:19:24.032Z,58.23
2023-05-19T17:21:51.569Z,58.33
2023-05-19T17:24:18.433Z,58.37
2023-05-19T17:26:45.860Z,58.38
2023-05-19T17:29:13.351Z,58.00
2023-05-19T17:31:39.863Z,58.86
2023-05-19T17:34:06.375Z,58.40
2023-05-19T17:36:33.126Z,58.50
2023-05-19T17:38:59.576Z,58.89
2023-05-19T17:41:26.046Z,58.63
2023-05-19T17:43:52.551Z,58.15
2023-05-19T17:46:19.532Z,59.03
2023-05-19T17:48:47.096Z,58.59
2023-05-19T17:51:13.708Z,58.38
2023-05-19T17:53:40.252Z,58.31
2023-05-19T17:56:06.793Z,58.16
2023-05-19T17:58:33.502Z,58.37
2023-05-19T18:00:59.970Z,58.15
2023-05-19T18:03:26.586Z,57.82
2023-05-19T18:05:53.131Z,58.03
2023-05-19T18:08:19.854Z,58.36
2023-05-19T18:10:46.335Z,58.56
2023-05-19T18:13:12.769Z,58.63
2023-05-19T18:15:39.229Z,59.20
2023-05-19T18:18:05.731Z,60.00
2023-05-19T18:20:33.089Z,59.46
2023-05-19T18:23:00.411Z,59.98
2023-05-19T18:25:26.902Z,59.58
2023-05-19T18:27:53.928Z,60.23
2023-05-19T18:30:20.367Z,59.54
2023-05-19T18:32:46.939Z,59.90
2023-05-19T18:35:13.479Z,60.08
2023-05-19T18:37:39.948Z,60.05
2023-05-19T18:40:06.429Z,60.78
2023-05-19T18:42:32.895Z,61.26
2023-05-19T18:44:59.718Z,61.04
2023-05-19T18:47:26.146Z,60.53
2023-05-19T18:49:52.896Z,60.92
2023-05-19T18:52:19.461Z,60.96
2023-05-19T18:54:45.941Z,61.29
2023-05-19T18:57:12.685Z,61.16
2023-05-19T18:59:40.261Z,60.27
2023-05-19T19:02:06.841Z,60.98
2023-05-19T19:04:33.368Z,61.04
2023-05-19T19:06:59.859Z,61.12
2023-05-19T19:09:26.608Z,61.15
2023-05-19T19:11:53.191Z,61.02
2023-05-19T19:14:19.660Z,61.28
2023-05-19T19:16:46.396Z,61.22
2023-05-19T19:19:14.109Z,61.16
2023-05-19T19:21:40.582Z,60.13
2023-05-19T19:24:07.042Z,60.30
2023-05-19T19:26:33.502Z,61.11
2023-05-19T19:28:59.939Z,61.30
2023-05-19T19:31:26.918Z,60.55
2023-05-19T19:33:53.420Z,61.32
2023-05-19T19:36:19.905Z,61.42
2023-05-19T19:38:46.376Z,61.01
2023-05-19T19:41:13.253Z,61.28
2023-05-19T19:43:39.846Z,60.84
2023-05-19T19:46:06.433Z,60.96
2023-05-19T19:48:32.939Z,61.40
2023-05-19T19:50:59.429Z,60.98
2023-05-19T19:53:25.873Z,61.01
2023-05-19T19:55:52.810Z,61.72
2023-05-19T19:58:19.282Z,61.02
2023-05-19T20:00:45.753Z,61.84
2023-05-19T20:03:12.285Z,61.10
2023-05-19T20:05:39.182Z,61.62
2023-05-19T20:08:05.750Z,61.91
2023-05-19T20:10:33.558Z,62.03
2023-05-19T20:13:00.191Z,61.58
2023-05-19T20:15:26.670Z,61.52
2023-05-19T20:17:53.197Z,61.74
2023-05-19T20:20:21.698Z,61.66
2023-05-19T20:22:48.142Z,61.53
2023-05-19T20:25:14.568Z,61.50
2023-05-19T20:27:41.483Z,61.32
2023-05-19T20:30:07.963Z,61.49
2023-05-19T20:32:34.594Z,61.38
2023-05-19T20:35:01.098Z,61.26
2023-05-19T20:37:27.538Z,61.21
2023-05-19T20:39:53.998Z,61.33
2023-05-19T20:42:21.021Z,60.86
2023-05-19T20:44:49.700Z,61.49
2023-05-19T20:47:16.136Z,61.12
2023-05-19T20:49:42.580Z,61.65
2023-05-19T20:52:09.102Z,61.50
2023-05-19T20:54:35.558Z,61.21
2023-05-19T20:57:02.052Z,61.26
2023-05-19T20:59:29.135Z,61.11
2023-05-19T21:01:55.625Z,61.91
2023-05-19T21:04:23.442Z,61.28
2023-05-19T21:06:49.957Z,62.12
2023-05-19T21:09:16.447Z,61.95
2023-05-19T21:11:42.885Z,62.46
2023-05-19T21:14:09.380Z,61.99
2023-05-19T21:16:36.308Z,62.08
2023-05-19T21:19:03.947Z,61.87
2023-05-19T21:21:30.530Z,61.87
2023-05-19T21:23:57.046Z,62.56
2023-05-19T21:26:24.682Z,63.05
2023-05-19T21:28:51.124Z,63.15
2023-05-19T21:31:17.991Z,62.74
2023-05-19T21:33:45.466Z,62.10
2023-05-19T21:36:11.940Z,63.17
2023-05-19T21:38:38.417Z,63.10
2023-05-19T21:41:04.868Z,63.04
2023-05-19T21:43:31.324Z,62.81
2023-05-19T21:45:57.801Z,62.92
2023-05-19T21:48:24.334Z,62.75
2023-05-19T21:50:50.884Z,62.92
2023-05-19T21:53:18.176Z,63.71
2023-05-19T21:55:44.778Z,63.37
2023-05-19T21:58:11.245Z,63.71
2023-05-19T22:00:39.015Z,63.62
2023-05-19T22:03:07.824Z,63.45
2023-05-19T22:05:35.343Z,62.25
2023-05-19T22:08:01.931Z,62.05
2023-05-19T22:10:28.400Z,62.54
2023-05-19T22:12:55.142Z,62.64
2023-05-19T22:15:22.573Z,62.89
2023-05-19T22:17:49.063Z,62.21
2023-05-19T22:20:15.521Z,62.96
2023-05-19T22:22:41.990Z,62.67
2023-05-19T22:25:08.448Z,62.40
2023-05-19T22:27:35.494Z,62.50
2023-05-19T22:30:02.108Z,62.19
2023-05-19T22:32:28.587Z,62.45
2023-05-19T22:34:55.110Z,63.01
2023-05-19T22:37:21.832Z,62.68
2023-05-19T22:39:48.325Z,63.11
2023-05-19T22:42:14.799Z,62.60
2023-05-19T22:44:41.229Z,62.78
2023-05-19T22:47:07.669Z,62.23
2023-05-19T22:49:34.182Z,62.46
2023-05-19T22:52:00.629Z,61.82
2023-05-19T22:54:27.977Z,62.58
2023-05-19T22:56:54.429Z,62.69
2023-05-19T22:59:20.910Z,62.61
2023-05-19T23:01:47.407Z,63.06
2023-05-19T23:04:14.023Z,63.01
2023-05-19T23:06:40.878Z,62.91
2023-05-19T23:09:07.370Z,62.91
2023-05-19T23:11:33.786Z,63.10
2023-05-19T23:14:00.292Z,63.59
2023-05-19T23:16:26.775Z,63.75
2023-05-19T23:18:53.297Z,63.15
2023-05-19T23:21:19.774Z,63.10
2023-05-19T23:23:47.026Z,63.42
2023-05-19T23:26:13.550Z,63.01
2023-05-19T23:28:40.110Z,63.22
2023-05-19T23:31:07.849Z,62.75
2023-05-19T23:33:35.387Z,63.19
2023-05-19T23:36:03.990Z,63.88
2023-05-19T23:38:30.577Z,63.36
2023-05-19T23:40:57.045Z,62.98
2023-05-19T23:43:23.784Z,63.01
2023-05-19T23:45:50.362Z,62.76
2023-05-19T23:48:16.822Z,62.45
2023-05-19T23:50:43.569Z,62.89
2023-05-19T23:53:10.157Z,62.45
2023-05-19T23:55:38.752Z,63.22
2023-05-19T23:58:06.351Z,63.06
